Startpagina
METAR-TAF:

METAR-TAF

Vliegvelden :

Vliegbasis Woensdrecht

Woensdrecht, Nederland

breedte: 51-27N, lengte: 004-20E, hoogte: 20 m

Actueel weer

Dit bericht is 12 minuten geleden gemaakt, om 02:55 UTC
Wind 1 kt uit variabele richting
Temperatuur 15°C
Vochtigheid 100%
Druk 1016 hPa
Zicht 10 km of meer
Verspreide wolken op 8900 ft
Gebroken wolken op 9600 ft
Geheel bewolkt op 10000 ft

METAR: EHWO 170255Z AUTO VRB01KT 9999 SCT089 BKN096 OVC100 15/15 Q1016 BLU

Tijdstip: 05:07 (03:07 UTC)

Verwachting

Dit bericht is 15 uur en het 9 minuten geleden gemaakt, om 11:58 UTC
Verwachting geldig van 16 om 13 UTC tot 17 om 01 UTC
Wind 7 kt uit het zuidwesten
Zicht 10 km of meer
Verspreide wolken op 3000 ft
Tijdelijke
van 16 om 20 UTC tot 17 om 01 UTC
Zicht: 4000 m
Verspreide wolken op 3000 ft, Cumulonimbus.
regenbuien, regen

TAF: EHWO 161158Z 1613/1701 23007KT 9999 SCT030 TEMPO 1620/1701 4000 SHRA RA SCT030CB

Waarnemingen en weersverwachtingen van meer dan 4000 vliegvelden (METAR en TAF).

De beschikbare stations zijn de gele en rode punten op de kaart.

Ga met uw muis naar het station om de naam te zien.

Klik dan om waarnemingen en weersverwachtingen te zien.

kaart wijzigen: klik op de groene knoppen met een zwart kruis om in te zoomen, op de groene knop met een streepje om uit te zoomen of op de groene pijlen voor aangrenzende kaarten.


METAR-TAF: